sensor_id;sensor_type;location;lat;lon;timestamp;pressure;altitude;pressure_sealevel;temperature;humidity
28588;BME280;15787;49.662;10.162;2023-04-15T00:01:05;98186.16;;;5.89;96.11
28588;BME280;15787;49.662;10.162;2023-04-15T00:03:39;98187.69;;;5.90;96.06
28588;BME280;15787;49.662;10.162;2023-04-15T00:06:13;98189.06;;;5.52;96.56
28588;BME280;15787;49.662;10.162;2023-04-15T00:08:47;98181.50;;;5.56;97.90
28588;BME280;15787;49.662;10.162;2023-04-15T00:11:22;98176.41;;;5.51;99.02
28588;BME280;15787;49.662;10.162;2023-04-15T00:13:56;98180.06;;;5.71;98.56
28588;BME280;15787;49.662;10.162;2023-04-15T00:16:30;98183.44;;;5.59;99.12
28588;BME280;15787;49.662;10.162;2023-04-15T00:19:03;98172.84;;;5.77;99.43
28588;BME280;15787;49.662;10.162;2023-04-15T00:21:37;98173.97;;;5.56;98.81
28588;BME280;15787;49.662;10.162;2023-04-15T00:24:13;98172.38;;;5.82;99.68
28588;BME280;15787;49.662;10.162;2023-04-15T00:26:48;98168.72;;;5.89;99.03
28588;BME280;15787;49.662;10.162;2023-04-15T00:29:22;98169.44;;;5.93;98.65
28588;BME280;15787;49.662;10.162;2023-04-15T00:31:56;98163.84;;;5.96;98.45
28588;BME280;15787;49.662;10.162;2023-04-15T00:34:29;98159.59;;;5.38;99.95
28588;BME280;15787;49.662;10.162;2023-04-15T00:37:03;98154.28;;;5.51;100.00
28588;BME280;15787;49.662;10.162;2023-04-15T00:39:36;98154.69;;;5.99;100.00
28588;BME280;15787;49.662;10.162;2023-04-15T00:42:12;98149.28;;;5.92;99.53
28588;BME280;15787;49.662;10.162;2023-04-15T00:44:45;98151.94;;;5.72;99.41
28588;BME280;15787;49.662;10.162;2023-04-15T00:47:20;98152.25;;;5.78;100.00
28588;BME280;15787;49.662;10.162;2023-04-15T00:49:54;98153.28;;;5.38;100.00
28588;BME280;15787;49.662;10.162;2023-04-15T00:52:29;98153.13;;;5.48;100.00
28588;BME280;15787;49.662;10.162;2023-04-15T00:55:03;98148.91;;;5.90;100.00
28588;BME280;15787;49.662;10.162;2023-04-15T00:57:39;98157.00;;;5.78;100.00
28588;BME280;15787;49.662;10.162;2023-04-15T01:00:12;98148.66;;;5.54;100.00
28588;BME280;15787;49.662;10.162;2023-04-15T01:02:47;98154.84;;;5.92;100.00
28588;BME280;15787;49.662;10.162;2023-04-15T01:05:21;98156.25;;;6.00;99.64
28588;BME280;15787;49.662;10.162;2023-04-15T01:07:56;98148.31;;;6.02;98.73
28588;BME280;15787;49.662;10.162;2023-04-15T01:10:32;98157.88;;;5.98;99.00
28588;BME280;15787;49.662;10.162;2023-04-15T01:13:07;98156.00;;;6.14;98.42
28588;BME280;15787;49.662;10.162;2023-04-15T01:15:41;98159.88;;;5.97;99.01
28588;BME280;15787;49.662;10.162;2023-04-15T01:18:15;98163.13;;;5.92;99.17
28588;BME280;15787;49.662;10.162;2023-04-15T01:20:48;98156.34;;;5.70;99.82
28588;BME280;15787;49.662;10.162;2023-04-15T01:23:22;98161.38;;;6.02;99.52
28588;BME280;15787;49.662;10.162;2023-04-15T01:25:56;98151.16;;;5.49;100.00
28588;BME280;15787;49.662;10.162;2023-04-15T01:28:37;98148.25;;;5.56;100.00
28588;BME280;15787;49.662;10.162;2023-04-15T01:31:12;98144.06;;;5.44;100.00
28588;BME280;15787;49.662;10.162;2023-04-15T01:33:45;98147.16;;;5.50;100.00
28588;BME280;15787;49.662;10.162;2023-04-15T01:36:19;98145.91;;;5.78;100.00
28588;BME280;15787;49.662;10.162;2023-04-15T01:38:52;98146.09;;;5.67;100.00
28588;BME280;15787;49.662;10.162;2023-04-15T01:41:27;98146.16;;;5.63;100.00
28588;BME280;15787;49.662;10.162;2023-04-15T01:44:01;98139.75;;;5.43;100.00
28588;BME280;15787;49.662;10.162;2023-04-15T01:46:34;98141.81;;;5.89;100.00
28588;BME280;15787;49.662;10.162;2023-04-15T01:49:08;98143.78;;;5.89;100.00
28588;BME280;15787;49.662;10.162;2023-04-15T01:51:41;98142.97;;;5.92;99.83
28588;BME280;15787;49.662;10.162;2023-04-15T01:54:16;98141.47;;;5.87;99.89
28588;BME280;15787;49.662;10.162;2023-04-15T01:56:52;98133.59;;;6.05;99.22
28588;BME280;15787;49.662;10.162;2023-04-15T01:59:25;98130.59;;;6.19;98.22
28588;BME280;15787;49.662;10.162;2023-04-15T02:01:58;98135.00;;;6.17;97.40
28588;BME280;15787;49.662;10.162;2023-04-15T02:04:32;98136.44;;;6.02;97.31
28588;BME280;15787;49.662;10.162;2023-04-15T02:07:05;98131.25;;;6.04;96.52
28588;BME280;15787;49.662;10.162;2023-04-15T02:09:39;98136.38;;;5.82;95.23
28588;BME280;15787;49.662;10.162;2023-04-15T02:12:14;98132.38;;;5.60;95.08
28588;BME280;15787;49.662;10.162;2023-04-15T02:14:49;98128.59;;;5.73;96.08
28588;BME280;15787;49.662;10.162;2023-04-15T02:17:23;98130.22;;;5.71;96.63
28588;BME280;15787;49.662;10.162;2023-04-15T02:19:56;98127.56;;;5.64;96.95
28588;BME280;15787;49.662;10.162;2023-04-15T02:22:30;98134.44;;;5.79;95.76
28588;BME280;15787;49.662;10.162;2023-04-15T02:25:05;98122.78;;;5.64;94.81
28588;BME280;15787;49.662;10.162;2023-04-15T02:27:40;98122.19;;;5.53;95.03
28588;BME280;15787;49.662;10.162;2023-04-15T02:30:13;98125.91;;;5.43;95.42
28588;BME280;15787;49.662;10.162;2023-04-15T02:32:47;98119.13;;;5.48;95.76
28588;BME280;15787;49.662;10.162;2023-04-15T02:35:20;98112.66;;;5.31;96.12
28588;BME280;15787;49.662;10.162;2023-04-15T02:37:56;98111.44;;;5.32;96.91
28588;BME280;15787;49.662;10.162;2023-04-15T02:40:30;98108.41;;;5.50;97.54
28588;BME280;15787;49.662;10.162;2023-04-15T02:43:05;98107.22;;;5.51;97.88
28588;BME280;15787;49.662;10.162;2023-04-15T02:45:39;98113.78;;;5.60;98.31
28588;BME280;15787;49.662;10.162;2023-04-15T02:48:14;98114.56;;;5.61;98.54
28588;BME280;15787;49.662;10.162;2023-04-15T02:50:50;98116.03;;;5.42;98.52
28588;BME280;15787;49.662;10.162;2023-04-15T02:53:23;98108.94;;;5.41;98.59
28588;BME280;15787;49.662;10.162;2023-04-15T02:55:57;98115.50;;;5.51;99.03
28588;BME280;15787;49.662;10.162;2023-04-15T02:58:32;98117.31;;;5.61;99.22
28588;BME280;15787;49.662;10.162;2023-04-15T03:01:06;98112.81;;;5.70;98.99
28588;BME280;15787;49.662;10.162;2023-04-15T03:03:39;98111.44;;;5.59;98.83
28588;BME280;15787;49.662;10.162;2023-04-15T03:06:13;98115.75;;;5.60;98.51
28588;BME280;15787;49.662;10.162;2023-04-15T03:08:47;98108.59;;;5.62;98.74
28588;BME280;15787;49.662;10.162;2023-04-15T03:11:21;98110.69;;;5.78;98.59
28588;BME280;15787;49.662;10.162;2023-04-15T03:13:56;98118.81;;;5.65;99.20
28588;BME280;15787;49.662;10.162;2023-04-15T03:16:35;98113.47;;;5.78;98.74
28588;BME280;15787;49.662;10.162;2023-04-15T03:19:08;98118.41;;;5.44;99.51
28588;BME280;15787;49.662;10.162;2023-04-15T03:21:45;98122.28;;;5.23;100.00
28588;BME280;15787;49.662;10.162;2023-04-15T03:24:19;98111.41;;;5.36;100.00
28588;BME280;15787;49.662;10.162;2023-04-15T03:26:53;98117.19;;;5.68;100.00
28588;BME280;15787;49.662;10.162;2023-04-15T03:29:29;98108.53;;;5.66;100.00
28588;BME280;15787;49.662;10.162;2023-04-15T03:32:03;98106.97;;;5.65;100.00
28588;BME280;15787;49.662;10.162;2023-04-15T03:34:38;98113.81;;;5.80;100.00
28588;BME280;15787;49.662;10.162;2023-04-15T03:37:12;98112.56;;;5.61;100.00
28588;BME280;15787;49.662;10.162;2023-04-15T03:39:47;98117.34;;;5.34;100.00
28588;BME280;15787;49.662;10.162;2023-04-15T03:42:22;98115.03;;;5.29;100.00
28588;BME280;15787;49.662;10.162;2023-04-15T03:44:57;98115.16;;;5.49;100.00
28588;BME280;15787;49.662;10.162;2023-04-15T03:47:32;98127.53;;;5.41;100.00
28588;BME280;15787;49.662;10.162;2023-04-15T03:50:06;98123.34;;;5.79;100.00
28588;BME280;15787;49.662;10.162;2023-04-15T03:52:40;98125.56;;;5.64;100.00
28588;BME280;15787;49.662;10.162;2023-04-15T03:55:13;98120.28;;;5.73;100.00
28588;BME280;15787;49.662;10.162;2023-04-15T03:57:46;98120.50;;;5.83;100.00
28588;BME280;15787;49.662;10.162;2023-04-15T04:00:21;98122.22;;;5.77;99.66
28588;BME280;15787;49.662;10.162;2023-04-15T04:02:54;98119.84;;;5.75;100.00
28588;BME280;15787;49.662;10.162;2023-04-15T04:05:29;98127.63;;;5.60;100.00
28588;BME280;15787;49.662;10.162;2023-04-15T04:08:04;98123.66;;;5.61;100.00
28588;BME280;15787;49.662;10.162;2023-04-15T04:10:39;98120.22;;;5.54;100.00
28588;BME280;15787;49.662;10.162;2023-04-15T04:13:12;98123.66;;;5.61;100.00
28588;BME280;15787;49.662;10.162;2023-04-15T04:15:49;98127.84;;;5.20;100.00
28588;BME280;15787;49.662;10.162;2023-04-15T04:18:23;98122.13;;;5.57;100.00
28588;BME280;15787;49.662;10.162;2023-04-15T04:20:57;98123.22;;;5.63;100.00
28588;BME280;15787;49.662;10.162;2023-04-15T04:23:32;98130.34;;;5.64;100.00
28588;BME280;15787;49.662;10.162;2023-04-15T04:26:07;98130.50;;;5.53;100.00
28588;BME280;15787;49.662;10.162;2023-04-15T04:28:41;98127.84;;;5.69;100.00
28588;BME280;15787;49.662;10.162;2023-04-15T04:31:16;98135.72;;;5.48;100.00
28588;BME280;15787;49.662;10.162;2023-04-15T04:33:50;98133.47;;;5.66;100.00
28588;BME280;15787;49.662;10.162;2023-04-15T04:36:25;98135.28;;;5.49;100.00
28588;BME280;15787;49.662;10.162;2023-04-15T04:39:00;98131.88;;;5.65;100.00
28588;BME280;15787;49.662;10.162;2023-04-15T04:41:34;98129.94;;;5.62;100.00
28588;BME280;15787;49.662;10.162;2023-04-15T04:44:09;98129.41;;;5.47;100.00
28588;BME280;15787;49.662;10.162;2023-04-15T04:46:43;98130.50;;;5.53;100.00
28588;BME280;15787;49.662;10.162;2023-04-15T04:49:17;98132.50;;;5.76;100.00
28588;BME280;15787;49.662;10.162;2023-04-15T04:51:51;98128.72;;;5.66;100.00
28588;BME280;15787;49.662;10.162;2023-04-15T04:54:24;98127.97;;;5.62;100.00
28588;BME280;15787;49.662;10.162;2023-04-15T04:56:58;98125.88;;;5.70;100.00
28588;BME280;15787;49.662;10.162;2023-04-15T04:59:32;98135.59;;;5.82;100.00
28588;BME280;15787;49.662;10.162;2023-04-15T05:02:08;98130.22;;;5.71;100.00
28588;BME280;15787;49.662;10.162;2023-04-15T05:04:41;98127.41;;;5.74;100.00
28588;BME280;15787;49.662;10.162;2023-04-15T05:07:15;98126.03;;;5.86;100.00
28588;BME280;15787;49.662;10.162;2023-04-15T05:09:50;98122.81;;;5.88;100.00
28588;BME280;15787;49.662;10.162;2023-04-15T05:12:25;98130.94;;;5.75;100.00
28588;BME280;15787;49.662;10.162;2023-04-15T05:14:58;98129.38;;;5.74;100.00
28588;BME280;15787;49.662;10.162;2023-04-15T05:17:33;98123.22;;;5.90;100.00
28588;BME280;15787;49.662;10.162;2023-04-15T05:20:08;98127.28;;;5.82;100.00
28588;BME280;15787;49.662;10.162;2023-04-15T05:22:41;98132.41;;;6.06;100.00
28588;BME280;15787;49.662;10.162;2023-04-15T05:25:14;98128.50;;;6.04;100.00
28588;BME280;15787;49.662;10.162;2023-04-15T05:27:47;98136.56;;;5.95;100.00
28588;BME280;15787;49.662;10.162;2023-04-15T05:30:20;98139.88;;;6.09;100.00
28588;BME280;15787;49.662;10.162;2023-04-15T05:32:55;98137.06;;;5.90;100.00
28588;BME280;15787;49.662;10.162;2023-04-15T05:35:28;98143.47;;;5.83;100.00
28588;BME280;15787;49.662;10.162;2023-04-15T05:38:01;98135.88;;;5.64;100.00
28588;BME280;15787;49.662;10.162;2023-04-15T05:40:34;98142.50;;;6.16;100.00
28588;BME280;15787;49.662;10.162;2023-04-15T05:43:07;98139.03;;;6.12;100.00
28588;BME280;15787;49.662;10.162;2023-04-15T05:45:40;98133.00;;;6.17;100.00
28588;BME280;15787;49.662;10.162;2023-04-15T05:48:15;98138.50;;;6.60;100.00
28588;BME280;15787;49.662;10.162;2023-04-15T05:50:48;98141.34;;;6.57;100.00
28588;BME280;15787;49.662;10.162;2023-04-15T05:53:22;98140.69;;;6.49;100.00
28588;BME280;15787;49.662;10.162;2023-04-15T05:55:55;98132.47;;;6.65;100.00
28588;BME280;15787;49.662;10.162;2023-04-15T05:58:28;98142.19;;;6.34;100.00
28588;BME280;15787;49.662;10.162;2023-04-15T06:01:04;98133.03;;;7.12;100.00
28588;BME280;15787;49.662;10.162;2023-04-15T06:03:39;98142.81;;;7.36;100.00
28588;BME280;15787;49.662;10.162;2023-04-15T06:06:12;98131.56;;;7.08;100.00
28588;BME280;15787;49.662;10.162;2023-04-15T06:08:46;98142.28;;;7.25;100.00
28588;BME280;15787;49.662;10.162;2023-04-15T06:11:19;98140.78;;;7.21;100.00
28588;BME280;15787;49.662;10.162;2023-04-15T06:13:52;98140.84;;;7.01;100.00
28588;BME280;15787;49.662;10.162;2023-04-15T06:16:25;98140.13;;;6.97;100.00
28588;BME280;15787;49.662;10.162;2023-04-15T06:18:59;98143.91;;;6.87;100.00
28588;BME280;15787;49.662;10.162;2023-04-15T06:21:33;98140.72;;;7.24;100.00
28588;BME280;15787;49.662;10.162;2023-04-15T06:24:06;98144.75;;;7.39;100.00
28588;BME280;15787;49.662;10.162;2023-04-15T06:26:39;98142.25;;;7.09;100.00
28588;BME280;15787;49.662;10.162;2023-04-15T06:29:12;98141.44;;;7.60;100.00
28588;BME280;15787;49.662;10.162;2023-04-15T06:31:46;98141.47;;;7.77;100.00
28588;BME280;15787;49.662;10.162;2023-04-15T06:34:20;98145.31;;;7.83;100.00
28588;BME280;15787;49.662;10.162;2023-04-15T06:36:53;98143.13;;;7.74;100.00
28588;BME280;15787;49.662;10.162;2023-04-15T06:39:26;98153.63;;;8.15;99.89
28588;BME280;15787;49.662;10.162;2023-04-15T06:41:59;98152.97;;;8.40;99.30
28588;BME280;15787;49.662;10.162;2023-04-15T06:44:32;98159.81;;;7.90;97.36
28588;BME280;15787;49.662;10.162;2023-04-15T06:47:05;98153.53;;;8.02;98.01
28588;BME280;15787;49.662;10.162;2023-04-15T06:49:39;98159.28;;;8.27;98.11
28588;BME280;15787;49.662;10.162;2023-04-15T06:52:13;98157.41;;;8.53;96.56
28588;BME280;15787;49.662;10.162;2023-04-15T06:54:47;98165.09;;;8.33;95.41
28588;BME280;15787;49.662;10.162;2023-04-15T06:57:20;98161.44;;;8.36;95.56
28588;BME280;15787;49.662;10.162;2023-04-15T06:59:53;98163.75;;;8.54;94.15
28588;BME280;15787;49.662;10.162;2023-04-15T07:02:26;98165.03;;;9.07;93.35
28588;BME280;15787;49.662;10.162;2023-04-15T07:05:02;98164.06;;;8.56;91.70
28588;BME280;15787;49.662;10.162;2023-04-15T07:07:35;98166.56;;;8.38;92.35
28588;BME280;15787;49.662;10.162;2023-04-15T07:10:09;98171.44;;;8.62;93.21
28588;BME280;15787;49.662;10.162;2023-04-15T07:12:42;98160.13;;;8.69;92.71
28588;BME280;15787;49.662;10.162;2023-04-15T07:15:15;98160.03;;;8.73;92.12
28588;BME280;15787;49.662;10.162;2023-04-15T07:17:48;98167.50;;;9.17;91.26
28588;BME280;15787;49.662;10.162;2023-04-15T07:20:23;98174.72;;;9.02;90.52
28588;BME280;15787;49.662;10.162;2023-04-15T07:22:56;98170.84;;;9.25;90.32
28588;BME280;15787;49.662;10.162;2023-04-15T07:25:29;98161.69;;;9.12;90.68
28588;BME280;15787;49.662;10.162;2023-04-15T07:28:02;98173.75;;;9.46;89.86
28588;BME280;15787;49.662;10.162;2023-04-15T07:30:36;98167.75;;;9.35;89.76
28588;BME280;15787;49.662;10.162;2023-04-15T07:33:09;98173.31;;;9.23;88.86
28588;BME280;15787;49.662;10.162;2023-04-15T07:35:43;98166.22;;;9.06;89.13
28588;BME280;15787;49.662;10.162;2023-04-15T07:38:17;98158.63;;;9.35;89.08
28588;BME280;15787;49.662;10.162;2023-04-15T07:40:50;98165.72;;;9.48;89.11
28588;BME280;15787;49.662;10.162;2023-04-15T07:43:24;98168.88;;;9.76;87.97
28588;BME280;15787;49.662;10.162;2023-04-15T07:45:56;98165.41;;;9.59;87.52
28588;BME280;15787;49.662;10.162;2023-04-15T07:48:29;98165.72;;;9.74;87.09
28588;BME280;15787;49.662;10.162;2023-04-15T07:51:04;98171.09;;;9.81;87.18
28588;BME280;15787;49.662;10.162;2023-04-15T07:53:39;98164.09;;;9.89;86.88
28588;BME280;15787;49.662;10.162;2023-04-15T07:56:13;98164.50;;;10.00;86.34
28588;BME280;15787;49.662;10.162;2023-04-15T07:58:46;98158.59;;;9.98;86.29
28588;BME280;15787;49.662;10.162;2023-04-15T08:01:19;98166.97;;;9.85;86.37
28588;BME280;15787;49.662;10.162;2023-04-15T08:03:52;98162.03;;;10.02;86.49
28588;BME280;15787;49.662;10.162;2023-04-15T08:06:28;98163.59;;;10.15;85.01
28588;BME280;15787;49.662;10.162;2023-04-15T08:09:01;98166.28;;;10.19;82.55
28588;BME280;15787;49.662;10.162;2023-04-15T08:11:35;98165.75;;;10.46;79.45
28588;BME280;15787;49.662;10.162;2023-04-15T08:14:08;98166.53;;;10.46;80.41
28588;BME280;15787;49.662;10.162;2023-04-15T08:16:41;98177.13;;;10.51;79.02
28588;BME280;15787;49.662;10.162;2023-04-15T08:19:14;98170.66;;;10.76;78.84
28588;BME280;15787;49.662;10.162;2023-04-15T08:21:49;98179.19;;;10.94;78.15
28588;BME280;15787;49.662;10.162;2023-04-15T08:24:23;98179.34;;;10.78;78.49
28588;BME280;15787;49.662;10.162;2023-04-15T08:26:56;98184.06;;;11.03;77.80
28588;BME280;15787;49.662;10.162;2023-04-15T08:29:30;98186.72;;;11.28;76.55
28588;BME280;15787;49.662;10.162;2023-04-15T08:32:05;98197.13;;;11.06;77.03
28588;BME280;15787;49.662;10.162;2023-04-15T08:34:38;98197.81;;;11.19;77.02
28588;BME280;15787;49.662;10.162;2023-04-15T08:37:12;98197.75;;;11.31;77.15
28588;BME280;15787;49.662;10.162;2023-04-15T08:39:45;98189.34;;;11.31;76.57
28588;BME280;15787;49.662;10.162;2023-04-15T08:42:31;98189.50;;;11.28;75.52
28588;BME280;15787;49.662;10.162;2023-04-15T08:45:09;98197.50;;;11.38;74.23
28588;BME280;15787;49.662;10.162;2023-04-15T08:47:44;98211.50;;;11.48;72.22
28588;BME280;15787;49.662;10.162;2023-04-15T08:50:20;98205.69;;;11.11;72.94
28588;BME280;15787;49.662;10.162;2023-04-15T08:52:55;98197.09;;;11.27;74.30
28588;BME280;15787;49.662;10.162;2023-04-15T08:55:32;98205.56;;;11.15;72.99
28588;BME280;15787;49.662;10.162;2023-04-15T08:58:08;98205.69;;;11.33;71.67
28588;BME280;15787;49.662;10.162;2023-04-15T09:00:41;98206.28;;;11.06;72.78
28588;BME280;15787;49.662;10.162;2023-04-15T09:03:15;98199.13;;;11.05;73.59
28588;BME280;15787;49.662;10.162;2023-04-15T09:05:49;98201.97;;;11.14;73.77
28588;BME280;15787;49.662;10.162;2023-04-15T09:08:25;98204.28;;;11.28;72.33
28588;BME280;15787;49.662;10.162;2023-04-15T09:10:58;98197.81;;;11.19;73.34
28588;BME280;15787;49.662;10.162;2023-04-15T09:13:31;98202.78;;;10.93;72.82
28588;BME280;15787;49.662;10.162;2023-04-15T09:16:04;98215.00;;;11.08;72.31
28588;BME280;15787;49.662;10.162;2023-04-15T09:18:39;98195.97;;;11.16;73.31
28588;BME280;15787;49.662;10.162;2023-04-15T09:21:12;98211.28;;;11.11;73.24
28588;BME280;15787;49.662;10.162;2023-04-15T09:24:02;98205.50;;;11.06;75.32
28588;BME280;15787;49.662;10.162;2023-04-15T09:26:36;98211.19;;;11.24;75.77
28588;BME280;15787;49.662;10.162;2023-04-15T09:29:11;98214.97;;;11.52;74.44
28588;BME280;15787;49.662;10.162;2023-04-15T09:31:45;98220.31;;;11.68;74.32
28588;BME280;15787;49.662;10.162;2023-04-15T09:34:18;98222.56;;;11.51;74.49
28588;BME280;15787;49.662;10.162;2023-04-15T09:36:53;98236.13;;;11.31;75.22
28588;BME280;15787;49.662;10.162;2023-04-15T09:39:44;98228.75;;;11.03;78.71
28588;BME280;15787;49.662;10.162;2023-04-15T09:42:18;98222.00;;;11.34;79.97
28588;BME280;15787;49.662;10.162;2023-04-15T09:44:55;98236.88;;;11.10;79.98
28588;BME280;15787;49.662;10.162;2023-04-15T09:47:28;98234.09;;;10.75;80.08
28588;BME280;15787;49.662;10.162;2023-04-15T09:50:01;98237.19;;;10.56;79.59
28588;BME280;15787;49.662;10.162;2023-04-15T09:52:40;98237.06;;;10.59;80.75
28588;BME280;15787;49.662;10.162;2023-04-15T09:55:17;98229.44;;;10.72;80.91
28588;BME280;15787;49.662;10.162;2023-04-15T09:57:49;98228.56;;;10.63;78.90
28588;BME280;15787;49.662;10.162;2023-04-15T10:00:22;98229.75;;;10.74;77.91
28588;BME280;15787;49.662;10.162;2023-04-15T10:02:56;98221.13;;;10.47;76.87
28588;BME280;15787;49.662;10.162;2023-04-15T10:05:29;98236.81;;;10.32;77.95
28588;BME280;15787;49.662;10.162;2023-04-15T10:08:03;98230.09;;;10.17;76.93
28588;BME280;15787;49.662;10.162;2023-04-15T10:10:38;98231.75;;;9.77;77.42
28588;BME280;15787;49.662;10.162;2023-04-15T10:13:13;98240.91;;;10.02;77.12
28588;BME280;15787;49.662;10.162;2023-04-15T10:15:50;98239.00;;;9.87;78.57
28588;BME280;15787;49.662;10.162;2023-04-15T10:18:25;98244.38;;;9.81;78.86
28588;BME280;15787;49.662;10.162;2023-04-15T10:20:59;98252.84;;;9.78;79.57
28588;BME280;15787;49.662;10.162;2023-04-15T10:23:32;98241.69;;;9.65;78.74
28588;BME280;15787;49.662;10.162;2023-04-15T10:26:07;98239.47;;;9.85;78.12
28588;BME280;15787;49.662;10.162;2023-04-15T10:28:43;98241.47;;;10.10;77.12
28588;BME280;15787;49.662;10.162;2023-04-15T10:31:17;98242.03;;;9.80;76.68
28588;BME280;15787;49.662;10.162;2023-04-15T10:33:52;98245.38;;;9.87;76.64
28588;BME280;15787;49.662;10.162;2023-04-15T10:36:25;98245.38;;;9.87;76.23
28588;BME280;15787;49.662;10.162;2023-04-15T10:38:58;98243.25;;;10.04;76.79
28588;BME280;15787;49.662;10.162;2023-04-15T10:41:33;98242.81;;;10.05;78.90
28588;BME280;15787;49.662;10.162;2023-04-15T10:44:06;98243.81;;;9.86;81.33
28588;BME280;15787;49.662;10.162;2023-04-15T10:46:40;98250.38;;;9.67;81.61
28588;BME280;15787;49.662;10.162;2023-04-15T10:49:15;98246.94;;;9.63;82.73
28588;BME280;15787;49.662;10.162;2023-04-15T10:51:51;98258.09;;;9.76;82.76
28588;BME280;15787;49.662;10.162;2023-04-15T10:54:30;98255.94;;;9.67;83.25
28588;BME280;15787;49.662;10.162;2023-04-15T10:57:13;98254.56;;;9.46;82.95
28588;BME280;15787;49.662;10.162;2023-04-15T11:00:01;98267.84;;;9.42;82.48
28588;BME280;15787;49.662;10.162;2023-04-15T11:02:42;98266.13;;;9.32;82.78
28588;BME280;15787;49.662;10.162;2023-04-15T11:05:16;98264.16;;;9.45;83.95
28588;BME280;15787;49.662;10.162;2023-04-15T11:07:52;98264.38;;;9.51;84.72
28588;BME280;15787;49.662;10.162;2023-04-15T11:10:50;98258.94;;;9.47;84.85
28588;BME280;15787;49.662;10.162;2023-04-15T11:13:26;98267.94;;;9.39;86.77
28588;BME280;15787;49.662;10.162;2023-04-15T11:16:01;98263.47;;;9.41;87.15
28588;BME280;15787;49.662;10.162;2023-04-15T11:18:35;98256.53;;;9.33;86.54
28588;BME280;15787;49.662;10.162;2023-04-15T11:21:08;98270.44;;;9.21;87.67
28588;BME280;15787;49.662;10.162;2023-04-15T11:23:42;98272.34;;;9.24;89.14
28588;BME280;15787;49.662;10.162;2023-04-15T11:26:17;98271.00;;;9.28;91.02
28588;BME280;15787;49.662;10.162;2023-04-15T11:28:51;98277.00;;;9.56;90.85
28588;BME280;15787;49.662;10.162;2023-04-15T11:31:26;98272.72;;;9.38;92.56
28588;BME280;15787;49.662;10.162;2023-04-15T11:33:59;98276.50;;;9.32;92.84
28588;BME280;15787;49.662;10.162;2023-04-15T11:36:33;98277.63;;;9.34;94.53
28588;BME280;15787;49.662;10.162;2023-04-15T11:39:06;98282.94;;;9.29;95.00
28588;BME280;15787;49.662;10.162;2023-04-15T11:41:40;98277.03;;;9.27;95.67
28588;BME280;15787;49.662;10.162;2023-04-15T11:44:19;98283.31;;;9.43;97.13
28588;BME280;15787;49.662;10.162;2023-04-15T11:46:53;98288.72;;;9.50;96.60
28588;BME280;15787;49.662;10.162;2023-04-15T11:49:27;98283.69;;;9.45;97.29
28588;BME280;15787;49.662;10.162;2023-04-15T11:52:09;98282.09;;;9.44;98.74
28588;BME280;15787;49.662;10.162;2023-04-15T11:54:42;98293.91;;;9.48;99.03
28588;BME280;15787;49.662;10.162;2023-04-15T11:57:15;98288.38;;;9.61;99.24
28588;BME280;15787;49.662;10.162;2023-04-15T11:59:53;98300.63;;;9.64;99.20
28588;BME280;15787;49.662;10.162;2023-04-15T12:02:30;98307.69;;;9.68;96.94
28588;BME280;15787;49.662;10.162;2023-04-15T12:05:04;98307.47;;;9.34;98.22
28588;BME280;15787;49.662;10.162;2023-04-15T12:07:56;98308.56;;;9.24;98.87
28588;BME280;15787;49.662;10.162;2023-04-15T12:10:30;98315.84;;;9.34;98.88
28588;BME280;15787;49.662;10.162;2023-04-15T12:13:05;98317.28;;;9.38;100.00
28588;BME280;15787;49.662;10.162;2023-04-15T12:15:41;98318.19;;;9.35;99.16
28588;BME280;15787;49.662;10.162;2023-04-15T12:18:17;98317.59;;;9.28;99.27
28588;BME280;15787;49.662;10.162;2023-04-15T12:20:50;98316.28;;;9.32;98.90
28588;BME280;15787;49.662;10.162;2023-04-15T12:23:23;98321.28;;;9.25;99.71
28588;BME280;15787;49.662;10.162;2023-04-15T12:25:55;98320.41;;;9.28;100.00
28588;BME280;15787;49.662;10.162;2023-04-15T12:28:29;98323.94;;;9.28;100.00
28588;BME280;15787;49.662;10.162;2023-04-15T12:31:08;98320.78;;;9.14;100.00
28588;BME280;15787;49.662;10.162;2023-04-15T12:33:41;98327.56;;;9.13;100.00
28588;BME280;15787;49.662;10.162;2023-04-15T12:36:14;98333.81;;;9.17;100.00
28588;BME280;15787;49.662;10.162;2023-04-15T12:38:47;98340.59;;;9.16;100.00
28588;BME280;15787;49.662;10.162;2023-04-15T12:41:20;98337.72;;;9.19;100.00
28588;BME280;15787;49.662;10.162;2023-04-15T12:43:55;98333.75;;;9.04;100.00
28588;BME280;15787;49.662;10.162;2023-04-15T12:46:29;98347.69;;;9.04;100.00
28588;BME280;15787;49.662;10.162;2023-04-15T12:49:02;98349.16;;;8.93;100.00
28588;BME280;15787;49.662;10.162;2023-04-15T12:51:35;98349.88;;;8.97;100.00
28588;BME280;15787;49.662;10.162;2023-04-15T12:54:08;98348.03;;;9.06;100.00
28588;BME280;15787;49.662;10.162;2023-04-15T12:56:41;98358.56;;;9.15;100.00
28588;BME280;15787;49.662;10.162;2023-04-15T12:59:15;98346.81;;;9.07;100.00
28588;BME280;15787;49.662;10.162;2023-04-15T13:01:51;98349.25;;;9.34;100.00
28588;BME280;15787;49.662;10.162;2023-04-15T13:04:25;98350.63;;;9.13;100.00
28588;BME280;15787;49.662;10.162;2023-04-15T13:07:01;98350.44;;;9.20;100.00
28588;BME280;15787;49.662;10.162;2023-04-15T13:09:34;98360.16;;;9.00;100.00
28588;BME280;15787;49.662;10.162;2023-04-15T13:12:08;98364.66;;;9.10;100.00
28588;BME280;15787;49.662;10.162;2023-04-15T13:14:41;98357.16;;;9.07;100.00
28588;BME280;15787;49.662;10.162;2023-04-15T13:17:18;98366.25;;;9.23;100.00
28588;BME280;15787;49.662;10.162;2023-04-15T13:19:53;98367.84;;;9.24;100.00
28588;BME280;15787;49.662;10.162;2023-04-15T13:22:26;98369.50;;;9.22;100.00
28588;BME280;15787;49.662;10.162;2023-04-15T13:24:59;98372.88;;;9.29;100.00
28588;BME280;15787;49.662;10.162;2023-04-15T13:27:31;98365.66;;;9.16;100.00
28588;BME280;15787;49.662;10.162;2023-04-15T13:30:05;98365.91;;;9.37;100.00
28588;BME280;15787;49.662;10.162;2023-04-15T13:32:40;98367.41;;;9.54;100.00